sensor_id;sensor_type;location;lat;lon;timestamp;P1;durP1;ratioP1;P2;durP2;ratioP2
22298;SDS011;11317;51.072;17.036;2023-03-01T00:00:47;35.08;;;15.48;;
22298;SDS011;11317;51.072;17.036;2023-03-01T00:03:13;43.60;;;17.85;;
22298;SDS011;11317;51.072;17.036;2023-03-01T00:05:46;36.88;;;14.57;;
22298;SDS011;11317;51.072;17.036;2023-03-01T00:08:12;33.70;;;13.67;;
22298;SDS011;11317;51.072;17.036;2023-03-01T00:10:38;50.35;;;16.65;;
22298;SDS011;11317;51.072;17.036;2023-03-01T00:13:04;42.85;;;16.80;;
22298;SDS011;11317;51.072;17.036;2023-03-01T00:15:30;40.03;;;15.65;;
22298;SDS011;11317;51.072;17.036;2023-03-01T00:17:57;30.52;;;15.63;;
22298;SDS011;11317;51.072;17.036;2023-03-01T00:20:23;42.63;;;17.30;;
22298;SDS011;11317;51.072;17.036;2023-03-01T00:22:49;39.72;;;16.40;;
22298;SDS011;11317;51.072;17.036;2023-03-01T00:25:15;30.85;;;15.40;;
22298;SDS011;11317;51.072;17.036;2023-03-01T00:27:41;40.85;;;17.75;;
22298;SDS011;11317;51.072;17.036;2023-03-01T00:30:07;42.38;;;17.48;;
22298;SDS011;11317;51.072;17.036;2023-03-01T00:32:35;39.42;;;16.33;;
22298;SDS011;11317;51.072;17.036;2023-03-01T00:35:01;48.83;;;19.00;;
22298;SDS011;11317;51.072;17.036;2023-03-01T00:37:27;44.25;;;16.98;;
22298;SDS011;11317;51.072;17.036;2023-03-01T00:39:53;53.08;;;19.58;;
22298;SDS011;11317;51.072;17.036;2023-03-01T00:42:19;47.55;;;18.38;;
22298;SDS011;11317;51.072;17.036;2023-03-01T00:44:47;39.72;;;17.45;;
22298;SDS011;11317;51.072;17.036;2023-03-01T00:47:13;51.22;;;17.85;;
22298;SDS011;11317;51.072;17.036;2023-03-01T00:49:39;37.40;;;17.45;;
22298;SDS011;11317;51.072;17.036;2023-03-01T00:52:05;48.05;;;18.90;;
22298;SDS011;11317;51.072;17.036;2023-03-01T00:54:31;42.90;;;16.52;;
22298;SDS011;11317;51.072;17.036;2023-03-01T00:56:57;39.38;;;17.15;;
22298;SDS011;11317;51.072;17.036;2023-03-01T00:59:23;35.75;;;16.50;;
22298;SDS011;11317;51.072;17.036;2023-03-01T01:01:49;32.88;;;15.13;;
22298;SDS011;11317;51.072;17.036;2023-03-01T01:04:15;52.70;;;20.00;;
22298;SDS011;11317;51.072;17.036;2023-03-01T01:06:43;51.28;;;18.88;;
22298;SDS011;11317;51.072;17.036;2023-03-01T01:09:11;50.67;;;19.20;;
22298;SDS011;11317;51.072;17.036;2023-03-01T01:11:43;45.15;;;18.88;;
22298;SDS011;11317;51.072;17.036;2023-03-01T01:14:10;43.03;;;18.45;;
22298;SDS011;11317;51.072;17.036;2023-03-01T01:16:36;51.83;;;18.60;;
22298;SDS011;11317;51.072;17.036;2023-03-01T01:19:02;42.95;;;19.00;;
22298;SDS011;11317;51.072;17.036;2023-03-01T01:21:29;40.47;;;18.38;;
22298;SDS011;11317;51.072;17.036;2023-03-01T01:23:56;51.20;;;18.45;;
22298;SDS011;11317;51.072;17.036;2023-03-01T01:26:23;46.53;;;19.38;;
22298;SDS011;11317;51.072;17.036;2023-03-01T01:28:54;49.90;;;20.23;;
22298;SDS011;11317;51.072;17.036;2023-03-01T01:31:20;50.28;;;20.23;;
22298;SDS011;11317;51.072;17.036;2023-03-01T01:33:49;46.78;;;21.00;;
22298;SDS011;11317;51.072;17.036;2023-03-01T01:36:15;44.72;;;19.42;;
22298;SDS011;11317;51.072;17.036;2023-03-01T01:38:41;54.03;;;19.70;;
22298;SDS011;11317;51.072;17.036;2023-03-01T01:41:08;58.40;;;23.50;;
22298;SDS011;11317;51.072;17.036;2023-03-01T01:46:34;58.63;;;22.52;;
22298;SDS011;11317;51.072;17.036;2023-03-01T01:49:07;48.85;;;20.35;;
22298;SDS011;11317;51.072;17.036;2023-03-01T01:51:48;45.80;;;20.25;;
22298;SDS011;11317;51.072;17.036;2023-03-01T01:54:22;62.22;;;24.13;;
22298;SDS011;11317;51.072;17.036;2023-03-01T01:56:54;57.80;;;24.25;;
22298;SDS011;11317;51.072;17.036;2023-03-01T01:59:23;46.33;;;21.58;;
22298;SDS011;11317;51.072;17.036;2023-03-01T02:01:51;58.17;;;25.58;;
22298;SDS011;11317;51.072;17.036;2023-03-01T02:04:17;58.70;;;24.65;;
22298;SDS011;11317;51.072;17.036;2023-03-01T02:07:06;49.67;;;22.17;;
22298;SDS011;11317;51.072;17.036;2023-03-01T02:09:34;54.25;;;22.27;;
22298;SDS011;11317;51.072;17.036;2023-03-01T02:12:02;59.08;;;23.85;;
22298;SDS011;11317;51.072;17.036;2023-03-01T02:14:29;42.33;;;19.98;;
22298;SDS011;11317;51.072;17.036;2023-03-01T02:16:55;47.90;;;21.15;;
22298;SDS011;11317;51.072;17.036;2023-03-01T02:19:34;58.00;;;23.75;;
22298;SDS011;11317;51.072;17.036;2023-03-01T02:24:57;59.42;;;22.92;;
22298;SDS011;11317;51.072;17.036;2023-03-01T02:27:58;48.20;;;21.02;;
22298;SDS011;11317;51.072;17.036;2023-03-01T02:30:43;46.38;;;19.70;;
22298;SDS011;11317;51.072;17.036;2023-03-01T02:33:30;46.67;;;19.60;;
22298;SDS011;11317;51.072;17.036;2023-03-01T02:36:02;55.55;;;22.98;;
22298;SDS011;11317;51.072;17.036;2023-03-01T02:38:31;49.33;;;20.95;;
22298;SDS011;11317;51.072;17.036;2023-03-01T02:40:57;49.28;;;19.98;;
22298;SDS011;11317;51.072;17.036;2023-03-01T02:43:26;55.13;;;18.92;;
22298;SDS011;11317;51.072;17.036;2023-03-01T02:45:57;43.25;;;18.10;;
22298;SDS011;11317;51.072;17.036;2023-03-01T02:48:38;39.47;;;18.47;;
22298;SDS011;11317;51.072;17.036;2023-03-01T02:51:18;43.70;;;19.13;;
22298;SDS011;11317;51.072;17.036;2023-03-01T02:56:50;51.22;;;19.05;;
22298;SDS011;11317;51.072;17.036;2023-03-01T02:59:18;46.60;;;20.05;;
22298;SDS011;11317;51.072;17.036;2023-03-01T03:01:46;44.88;;;19.15;;
22298;SDS011;11317;51.072;17.036;2023-03-01T03:04:14;46.33;;;19.67;;
22298;SDS011;11317;51.072;17.036;2023-03-01T03:06:43;44.42;;;18.08;;
22298;SDS011;11317;51.072;17.036;2023-03-01T03:09:10;39.22;;;18.52;;
22298;SDS011;11317;51.072;17.036;2023-03-01T03:11:36;46.95;;;21.02;;
22298;SDS011;11317;51.072;17.036;2023-03-01T03:14:04;50.05;;;20.40;;
22298;SDS011;11317;51.072;17.036;2023-03-01T03:16:30;44.63;;;21.42;;
22298;SDS011;11317;51.072;17.036;2023-03-01T03:18:56;51.13;;;20.05;;
22298;SDS011;11317;51.072;17.036;2023-03-01T03:21:30;50.67;;;19.25;;
22298;SDS011;11317;51.072;17.036;2023-03-01T03:23:57;42.83;;;17.88;;
22298;SDS011;11317;51.072;17.036;2023-03-01T03:26:24;39.80;;;18.15;;
22298;SDS011;11317;51.072;17.036;2023-03-01T03:28:50;44.15;;;19.65;;
22298;SDS011;11317;51.072;17.036;2023-03-01T03:31:16;50.72;;;19.98;;
22298;SDS011;11317;51.072;17.036;2023-03-01T03:33:42;47.10;;;18.60;;
22298;SDS011;11317;51.072;17.036;2023-03-01T03:36:08;48.78;;;20.35;;
22298;SDS011;11317;51.072;17.036;2023-03-01T03:38:38;45.88;;;19.55;;
22298;SDS011;11317;51.072;17.036;2023-03-01T03:41:05;47.35;;;20.63;;
22298;SDS011;11317;51.072;17.036;2023-03-01T03:43:33;52.28;;;21.38;;
22298;SDS011;11317;51.072;17.036;2023-03-01T03:46:01;52.13;;;22.92;;
22298;SDS011;11317;51.072;17.036;2023-03-01T03:48:33;54.03;;;22.77;;
22298;SDS011;11317;51.072;17.036;2023-03-01T03:51:00;61.95;;;23.90;;
22298;SDS011;11317;51.072;17.036;2023-03-01T03:53:27;51.97;;;22.00;;
22298;SDS011;11317;51.072;17.036;2023-03-01T03:55:54;52.50;;;21.73;;
22298;SDS011;11317;51.072;17.036;2023-03-01T03:58:21;57.42;;;24.90;;
22298;SDS011;11317;51.072;17.036;2023-03-01T04:00:50;56.00;;;23.75;;
22298;SDS011;11317;51.072;17.036;2023-03-01T04:03:18;57.60;;;22.50;;
22298;SDS011;11317;51.072;17.036;2023-03-01T04:05:45;54.60;;;22.92;;
22298;SDS011;11317;51.072;17.036;2023-03-01T04:08:12;52.47;;;21.98;;
22298;SDS011;11317;51.072;17.036;2023-03-01T04:10:39;48.10;;;23.50;;
22298;SDS011;11317;51.072;17.036;2023-03-01T04:13:09;52.60;;;22.75;;
22298;SDS011;11317;51.072;17.036;2023-03-01T04:15:36;56.92;;;23.30;;
22298;SDS011;11317;51.072;17.036;2023-03-01T04:18:02;49.53;;;21.60;;
22298;SDS011;11317;51.072;17.036;2023-03-01T04:20:30;44.13;;;20.17;;
22298;SDS011;11317;51.072;17.036;2023-03-01T04:23:00;47.08;;;20.73;;
22298;SDS011;11317;51.072;17.036;2023-03-01T04:26:08;45.63;;;21.67;;
22298;SDS011;11317;51.072;17.036;2023-03-01T04:30:54;57.25;;;22.55;;
22298;SDS011;11317;51.072;17.036;2023-03-01T04:33:21;43.65;;;20.58;;
22298;SDS011;11317;51.072;17.036;2023-03-01T04:35:48;51.40;;;22.08;;
22298;SDS011;11317;51.072;17.036;2023-03-01T04:38:15;49.08;;;21.75;;
22298;SDS011;11317;51.072;17.036;2023-03-01T04:40:42;44.38;;;20.13;;
22298;SDS011;11317;51.072;17.036;2023-03-01T04:43:09;42.75;;;20.02;;
22298;SDS011;11317;51.072;17.036;2023-03-01T04:45:35;43.85;;;18.45;;
22298;SDS011;11317;51.072;17.036;2023-03-01T04:48:02;49.80;;;20.95;;
22298;SDS011;11317;51.072;17.036;2023-03-01T04:50:28;48.15;;;19.67;;
22298;SDS011;11317;51.072;17.036;2023-03-01T04:52:54;42.28;;;19.08;;
22298;SDS011;11317;51.072;17.036;2023-03-01T04:55:24;46.85;;;19.17;;
22298;SDS011;11317;51.072;17.036;2023-03-01T04:57:53;44.72;;;18.95;;
22298;SDS011;11317;51.072;17.036;2023-03-01T05:00:20;41.85;;;18.58;;
22298;SDS011;11317;51.072;17.036;2023-03-01T05:05:13;48.13;;;19.30;;
22298;SDS011;11317;51.072;17.036;2023-03-01T05:07:40;48.00;;;20.75;;
22298;SDS011;11317;51.072;17.036;2023-03-01T05:10:06;47.92;;;19.02;;
22298;SDS011;11317;51.072;17.036;2023-03-01T05:12:32;44.35;;;20.73;;
22298;SDS011;11317;51.072;17.036;2023-03-01T05:14:58;55.63;;;19.65;;
22298;SDS011;11317;51.072;17.036;2023-03-01T05:17:24;41.50;;;19.75;;
22298;SDS011;11317;51.072;17.036;2023-03-01T05:19:50;45.70;;;21.63;;
22298;SDS011;11317;51.072;17.036;2023-03-01T05:22:16;43.40;;;18.67;;
22298;SDS011;11317;51.072;17.036;2023-03-01T05:24:42;45.25;;;21.15;;
22298;SDS011;11317;51.072;17.036;2023-03-01T05:27:08;45.20;;;18.50;;
22298;SDS011;11317;51.072;17.036;2023-03-01T05:29:34;46.60;;;19.95;;
22298;SDS011;11317;51.072;17.036;2023-03-01T05:32:01;37.85;;;17.63;;
22298;SDS011;11317;51.072;17.036;2023-03-01T05:34:28;46.53;;;20.02;;
22298;SDS011;11317;51.072;17.036;2023-03-01T05:36:56;40.35;;;18.73;;
22298;SDS011;11317;51.072;17.036;2023-03-01T05:39:23;53.53;;;20.05;;
22298;SDS011;11317;51.072;17.036;2023-03-01T05:41:54;43.25;;;19.77;;
22298;SDS011;11317;51.072;17.036;2023-03-01T05:44:21;39.28;;;18.63;;
22298;SDS011;11317;51.072;17.036;2023-03-01T05:46:48;54.22;;;22.08;;
22298;SDS011;11317;51.072;17.036;2023-03-01T05:49:14;46.30;;;18.80;;
22298;SDS011;11317;51.072;17.036;2023-03-01T05:51:41;54.65;;;21.58;;
22298;SDS011;11317;51.072;17.036;2023-03-01T05:54:09;43.70;;;19.65;;
22298;SDS011;11317;51.072;17.036;2023-03-01T05:56:35;42.45;;;20.55;;
22298;SDS011;11317;51.072;17.036;2023-03-01T05:59:02;36.28;;;18.63;;
22298;SDS011;11317;51.072;17.036;2023-03-01T06:01:30;50.60;;;18.17;;
22298;SDS011;11317;51.072;17.036;2023-03-01T06:03:56;51.30;;;19.50;;
22298;SDS011;11317;51.072;17.036;2023-03-01T06:06:23;57.10;;;19.98;;
22298;SDS011;11317;51.072;17.036;2023-03-01T06:08:49;46.72;;;19.73;;
22298;SDS011;11317;51.072;17.036;2023-03-01T06:11:15;51.70;;;20.27;;
22298;SDS011;11317;51.072;17.036;2023-03-01T06:13:42;47.97;;;18.98;;
22298;SDS011;11317;51.072;17.036;2023-03-01T06:16:09;52.53;;;20.98;;
22298;SDS011;11317;51.072;17.036;2023-03-01T06:18:35;41.03;;;19.50;;
22298;SDS011;11317;51.072;17.036;2023-03-01T06:21:02;44.13;;;19.10;;
22298;SDS011;11317;51.072;17.036;2023-03-01T06:23:28;44.85;;;20.70;;
22298;SDS011;11317;51.072;17.036;2023-03-01T06:25:54;48.45;;;21.85;;
22298;SDS011;11317;51.072;17.036;2023-03-01T06:28:20;54.30;;;21.40;;
22298;SDS011;11317;51.072;17.036;2023-03-01T06:30:47;53.22;;;21.40;;
22298;SDS011;11317;51.072;17.036;2023-03-01T06:33:14;49.75;;;20.58;;
22298;SDS011;11317;51.072;17.036;2023-03-01T06:35:40;62.65;;;21.38;;
22298;SDS011;11317;51.072;17.036;2023-03-01T06:38:06;46.63;;;21.25;;
22298;SDS011;11317;51.072;17.036;2023-03-01T06:40:32;51.05;;;22.58;;
22298;SDS011;11317;51.072;17.036;2023-03-01T06:43:00;52.28;;;23.00;;
22298;SDS011;11317;51.072;17.036;2023-03-01T06:45:26;61.85;;;21.52;;
22298;SDS011;11317;51.072;17.036;2023-03-01T06:47:52;54.75;;;22.40;;
22298;SDS011;11317;51.072;17.036;2023-03-01T06:50:25;58.75;;;24.35;;
22298;SDS011;11317;51.072;17.036;2023-03-01T06:52:55;49.17;;;23.08;;
22298;SDS011;11317;51.072;17.036;2023-03-01T06:55:21;44.67;;;20.88;;
22298;SDS011;11317;51.072;17.036;2023-03-01T06:57:47;52.08;;;22.25;;
22298;SDS011;11317;51.072;17.036;2023-03-01T07:00:13;47.92;;;21.92;;
22298;SDS011;11317;51.072;17.036;2023-03-01T07:02:40;53.35;;;20.73;;
22298;SDS011;11317;51.072;17.036;2023-03-01T07:05:06;50.72;;;20.77;;
22298;SDS011;11317;51.072;17.036;2023-03-01T07:07:32;37.42;;;19.70;;
22298;SDS011;11317;51.072;17.036;2023-03-01T07:09:58;50.45;;;19.75;;
22298;SDS011;11317;51.072;17.036;2023-03-01T07:12:24;55.75;;;21.25;;
22298;SDS011;11317;51.072;17.036;2023-03-01T07:14:50;39.67;;;18.98;;
22298;SDS011;11317;51.072;17.036;2023-03-01T07:17:16;48.20;;;20.83;;
22298;SDS011;11317;51.072;17.036;2023-03-01T07:19:43;56.55;;;21.45;;
22298;SDS011;11317;51.072;17.036;2023-03-01T07:22:10;46.15;;;19.45;;
22298;SDS011;11317;51.072;17.036;2023-03-01T07:24:35;43.22;;;20.70;;
22298;SDS011;11317;51.072;17.036;2023-03-01T07:27:02;48.15;;;19.92;;
22298;SDS011;11317;51.072;17.036;2023-03-01T07:29:28;44.22;;;18.10;;
22298;SDS011;11317;51.072;17.036;2023-03-01T07:31:54;45.80;;;19.73;;
22298;SDS011;11317;51.072;17.036;2023-03-01T07:34:20;44.47;;;19.38;;
22298;SDS011;11317;51.072;17.036;2023-03-01T07:36:46;47.05;;;19.92;;
22298;SDS011;11317;51.072;17.036;2023-03-01T07:39:12;41.97;;;18.38;;
22298;SDS011;11317;51.072;17.036;2023-03-01T07:41:38;44.83;;;17.67;;
22298;SDS011;11317;51.072;17.036;2023-03-01T07:44:04;44.42;;;18.90;;
22298;SDS011;11317;51.072;17.036;2023-03-01T07:46:31;38.05;;;17.77;;
22298;SDS011;11317;51.072;17.036;2023-03-01T07:48:57;37.90;;;18.40;;
22298;SDS011;11317;51.072;17.036;2023-03-01T07:51:23;35.55;;;19.48;;
22298;SDS011;11317;51.072;17.036;2023-03-01T07:53:49;50.25;;;21.95;;
22298;SDS011;11317;51.072;17.036;2023-03-01T07:56:15;38.25;;;20.17;;
22298;SDS011;11317;51.072;17.036;2023-03-01T07:58:43;41.42;;;21.58;;
22298;SDS011;11317;51.072;17.036;2023-03-01T08:01:11;43.08;;;20.65;;
22298;SDS011;11317;51.072;17.036;2023-03-01T08:03:38;46.42;;;24.10;;
22298;SDS011;11317;51.072;17.036;2023-03-01T08:06:05;43.42;;;22.10;;
22298;SDS011;11317;51.072;17.036;2023-03-01T08:08:33;38.58;;;19.55;;
22298;SDS011;11317;51.072;17.036;2023-03-01T08:11:00;38.40;;;19.73;;
22298;SDS011;11317;51.072;17.036;2023-03-01T08:13:26;36.25;;;19.48;;
22298;SDS011;11317;51.072;17.036;2023-03-01T08:15:53;39.63;;;19.80;;
22298;SDS011;11317;51.072;17.036;2023-03-01T08:18:19;29.55;;;16.50;;
22298;SDS011;11317;51.072;17.036;2023-03-01T08:20:46;28.83;;;17.13;;
22298;SDS011;11317;51.072;17.036;2023-03-01T08:23:12;33.35;;;18.77;;
22298;SDS011;11317;51.072;17.036;2023-03-01T08:25:38;28.10;;;15.30;;
22298;SDS011;11317;51.072;17.036;2023-03-01T08:28:05;25.63;;;15.30;;
22298;SDS011;11317;51.072;17.036;2023-03-01T08:30:31;29.50;;;16.35;;
22298;SDS011;11317;51.072;17.036;2023-03-01T08:32:58;26.50;;;14.43;;
22298;SDS011;11317;51.072;17.036;2023-03-01T08:35:24;29.70;;;15.52;;
22298;SDS011;11317;51.072;17.036;2023-03-01T08:37:50;23.52;;;13.27;;
22298;SDS011;11317;51.072;17.036;2023-03-01T08:40:16;25.80;;;13.07;;
22298;SDS011;11317;51.072;17.036;2023-03-01T08:42:42;27.88;;;13.45;;
22298;SDS011;11317;51.072;17.036;2023-03-01T08:45:08;23.50;;;13.93;;
22298;SDS011;11317;51.072;17.036;2023-03-01T08:47:35;26.95;;;14.63;;
22298;SDS011;11317;51.072;17.036;2023-03-01T08:50:01;21.85;;;12.23;;
22298;SDS011;11317;51.072;17.036;2023-03-01T08:52:27;21.02;;;11.18;;
22298;SDS011;11317;51.072;17.036;2023-03-01T08:54:55;17.17;;;9.82;;
22298;SDS011;11317;51.072;17.036;2023-03-01T08:57:21;18.23;;;10.75;;
22298;SDS011;11317;51.072;17.036;2023-03-01T08:59:47;17.50;;;10.15;;
22298;SDS011;11317;51.072;17.036;2023-03-01T09:02:15;18.33;;;11.40;;
22298;SDS011;11317;51.072;17.036;2023-03-01T09:04:41;24.80;;;12.90;;
22298;SDS011;11317;51.072;17.036;2023-03-01T09:07:07;24.25;;;13.07;;
22298;SDS011;11317;51.072;17.036;2023-03-01T09:09:34;26.38;;;15.00;;
22298;SDS011;11317;51.072;17.036;2023-03-01T09:12:00;28.80;;;15.27;;
22298;SDS011;11317;51.072;17.036;2023-03-01T09:14:27;23.60;;;13.68;;
22298;SDS011;11317;51.072;17.036;2023-03-01T09:16:53;27.20;;;14.65;;
22298;SDS011;11317;51.072;17.036;2023-03-01T09:19:19;20.90;;;12.90;;
22298;SDS011;11317;51.072;17.036;2023-03-01T09:21:45;22.77;;;13.20;;
22298;SDS011;11317;51.072;17.036;2023-03-01T09:24:19;25.52;;;13.73;;
22298;SDS011;11317;51.072;17.036;2023-03-01T09:26:45;23.42;;;13.30;;
22298;SDS011;11317;51.072;17.036;2023-03-01T09:29:12;21.83;;;13.50;;
22298;SDS011;11317;51.072;17.036;2023-03-01T09:31:39;25.83;;;13.73;;
22298;SDS011;11317;51.072;17.036;2023-03-01T09:34:05;22.52;;;13.35;;
22298;SDS011;11317;51.072;17.036;2023-03-01T09:36:31;26.95;;;14.23;;
22298;SDS011;11317;51.072;17.036;2023-03-01T09:38:58;26.83;;;13.63;;
22298;SDS011;11317;51.072;17.036;2023-03-01T09:44:18;22.65;;;12.80;;
22298;SDS011;11317;51.072;17.036;2023-03-01T09:47:05;22.90;;;13.70;;
22298;SDS011;11317;51.072;17.036;2023-03-01T09:49:43;25.40;;;13.65;;
22298;SDS011;11317;51.072;17.036;2023-03-01T09:55:00;23.08;;;13.88;;
22298;SDS011;11317;51.072;17.036;2023-03-01T09:57:33;23.02;;;12.60;;
22298;SDS011;11317;51.072;17.036;2023-03-01T10:02:42;25.10;;;13.77;;
22298;SDS011;11317;51.072;17.036;2023-03-01T10:12:54;24.75;;;14.23;;
22298;SDS011;11317;51.072;17.036;2023-03-01T10:15:34;26.95;;;14.98;;
22298;SDS011;11317;51.072;17.036;2023-03-01T10:18:06;23.90;;;14.73;;
22298;SDS011;11317;51.072;17.036;2023-03-01T10:20:42;24.88;;;13.35;;
22298;SDS011;11317;51.072;17.036;2023-03-01T10:23:19;24.48;;;14.30;;
22298;SDS011;11317;51.072;17.036;2023-03-01T10:28:16;22.90;;;13.57;;
22298;SDS011;11317;51.072;17.036;2023-03-01T10:30:42;27.13;;;13.27;;
22298;SDS011;11317;51.072;17.036;2023-03-01T10:33:28;23.77;;;13.18;;
22298;SDS011;11317;51.072;17.036;2023-03-01T10:35:57;20.80;;;11.98;;
22298;SDS011;11317;51.072;17.036;2023-03-01T10:38:24;24.30;;;11.25;;
22298;SDS011;11317;51.072;17.036;2023-03-01T10:40:56;17.02;;;10.45;;
22298;SDS011;11317;51.072;17.036;2023-03-01T10:43:30;17.15;;;10.43;;
22298;SDS011;11317;51.072;17.036;2023-03-01T10:46:24;16.23;;;10.32;;
22298;SDS011;11317;51.072;17.036;2023-03-01T10:49:05;14.00;;;10.00;;
22298;SDS011;11317;51.072;17.036;2023-03-01T10:51:40;19.67;;;10.60;;
22298;SDS011;11317;51.072;17.036;2023-03-01T10:56:56;16.65;;;9.45;;
22298;SDS011;11317;51.072;17.036;2023-03-01T10:59:28;16.52;;;10.15;;
22298;SDS011;11317;51.072;17.036;2023-03-01T11:04:54;22.30;;;10.25;;
22298;SDS011;11317;51.072;17.036;2023-03-01T11:07:21;17.98;;;10.57;;
22298;SDS011;11317;51.072;17.036;2023-03-01T11:09:48;14.75;;;9.18;;
22298;SDS011;11317;51.072;17.036;2023-03-01T11:12:14;15.25;;;9.38;;
22298;SDS011;11317;51.072;17.036;2023-03-01T11:14:48;12.80;;;8.95;;
22298;SDS011;11317;51.072;17.036;2023-03-01T11:19:40;17.25;;;9.40;;
22298;SDS011;11317;51.072;17.036;2023-03-01T11:22:19;17.55;;;10.38;;
22298;SDS011;11317;51.072;17.036;2023-03-01T11:24:48;20.40;;;10.65;;
22298;SDS011;11317;51.072;17.036;2023-03-01T11:29:43;17.90;;;10.23;;
22298;SDS011;11317;51.072;17.036;2023-03-01T11:32:12;19.08;;;9.88;;
22298;SDS011;11317;51.072;17.036;2023-03-01T11:34:54;15.70;;;8.95;;
22298;SDS011;11317;51.072;17.036;2023-03-01T11:45:31;18.70;;;9.15;;
22298;SDS011;11317;51.072;17.036;2023-03-01T11:48:30;16.67;;;9.65;;
22298;SDS011;11317;51.072;17.036;2023-03-01T11:50:59;16.85;;;8.35;;
22298;SDS011;11317;51.072;17.036;2023-03-01T11:56:03;19.30;;;9.35;;
22298;SDS011;11317;51.072;17.036;2023-03-01T11:59:06;17.35;;;8.13;;
22298;SDS011;11317;51.072;17.036;2023-03-01T12:04:34;17.65;;;8.57;;
22298;SDS011;11317;51.072;17.036;2023-03-01T12:15:39;12.35;;;7.35;;
22298;SDS011;11317;51.072;17.036;2023-03-01T12:21:17;11.25;;;5.53;;
22298;SDS011;11317;51.072;17.036;2023-03-01T12:29:38;11.45;;;5.32;;
22298;SDS011;11317;51.072;17.036;2023-03-01T12:35:02;14.38;;;6.40;;
22298;SDS011;11317;51.072;17.036;2023-03-01T12:38:00;14.45;;;6.72;;
22298;SDS011;11317;51.072;17.036;2023-03-01T12:40:51;14.32;;;6.93;;
22298;SDS011;11317;51.072;17.036;2023-03-01T12:51:39;16.17;;;7.88;;
22298;SDS011;11317;51.072;17.036;2023-03-01T12:54:15;21.80;;;8.88;;
22298;SDS011;11317;51.072;17.036;2023-03-01T12:56:45;17.52;;;8.10;;
22298;SDS011;11317;51.072;17.036;2023-03-01T13:04:35;11.52;;;6.20;;
22298;SDS011;11317;51.072;17.036;2023-03-01T13:07:25;11.18;;;6.15;;
22298;SDS011;11317;51.072;17.036;2023-03-01T13:17:51;5.80;;;3.13;;
22298;SDS011;11317;51.072;17.036;2023-03-01T13:20:21;9.68;;;4.45;;
22298;SDS011;11317;51.072;17.036;2023-03-01T13:23:11;10.05;;;4.05;;
22298;SDS011;11317;51.072;17.036;2023-03-01T13:37:17;11.52;;;5.43;;
22298;SDS011;11317;51.072;17.036;2023-03-01T13:39:29;10.52;;;4.82;;
22298;SDS011;11317;51.072;17.036;2023-03-01T13:42:03;10.30;;;3.90;;
22298;SDS011;11317;51.072;17.036;2023-03-01T13:45:43;9.35;;;4.25;;
22298;SDS011;11317;51.072;17.036;2023-03-01T13:48:45;11.38;;;4.15;;
22298;SDS011;11317;51.072;17.036;2023-03-01T13:51:05;7.78;;;4.38;;
22298;SDS011;11317;51.072;17.036;2023-03-01T13:53:42;9.68;;;5.13;;
22298;SDS011;11317;51.072;17.036;2023-03-01T13:56:19;12.18;;;5.53;;
22298;SDS011;11317;51.072;17.036;2023-03-01T13:58:54;8.77;;;5.07;;
22298;SDS011;11317;51.072;17.036;2023-03-01T14:01:35;11.55;;;4.93;;
22298;SDS011;11317;51.072;17.036;2023-03-01T14:04:16;9.82;;;4.85;;
22298;SDS011;11317;51.072;17.036;2023-03-01T14:06:45;12.85;;;5.65;;
22298;SDS011;11317;51.072;17.036;2023-03-01T14:09:27;10.70;;;5.32;;
22298;SDS011;11317;51.072;17.036;2023-03-01T14:12:08;11.02;;;5.95;;
22298;SDS011;11317;51.072;17.036;2023-03-01T14:14:46;9.25;;;5.05;;
22298;SDS011;11317;51.072;17.036;2023-03-01T14:19:58;7.75;;;4.82;;
22298;SDS011;11317;51.072;17.036;2023-03-01T14:22:33;8.30;;;5.38;;
22298;SDS011;11317;51.072;17.036;2023-03-01T14:25:02;10.95;;;5.43;;
22298;SDS011;11317;51.072;17.036;2023-03-01T14:27:42;13.20;;;6.05;;
22298;SDS011;11317;51.072;17.036;2023-03-01T14:30:23;10.38;;;4.65;;
22298;SDS011;11317;51.072;17.036;2023-03-01T14:32:56;14.00;;;5.10;;
22298;SDS011;11317;51.072;17.036;2023-03-01T14:35:28;9.20;;;4.68;;
22298;SDS011;11317;51.072;17.036;2023-03-01T14:37:55;10.57;;;5.30;;
22298;SDS011;11317;51.072;17.036;2023-03-01T14:40:32;11.38;;;5.20;;
22298;SDS011;11317;51.072;17.036;2023-03-01T14:43:00;9.95;;;5.28;;
22298;SDS011;11317;51.072;17.036;2023-03-01T14:45:33;12.73;;;5.72;;
22298;SDS011;11317;51.072;17.036;2023-03-01T14:48:00;13.02;;;6.03;;
22298;SDS011;11317;51.072;17.036;2023-03-01T14:50:30;12.27;;;5.38;;
22298;SDS011;11317;51.072;17.036;2023-03-01T14:52:59;11.00;;;6.22;;
22298;SDS011;11317;51.072;17.036;2023-03-01T14:55:35;8.68;;;4.60;;
22298;SDS011;11317;51.072;17.036;2023-03-01T14:58:08;11.32;;;5.93;;
22298;SDS011;11317;51.072;17.036;2023-03-01T15:00:37;12.40;;;5.97;;
22298;SDS011;11317;51.072;17.036;2023-03-01T15:03:07;10.98;;;5.75;;
22298;SDS011;11317;51.072;17.036;2023-03-01T15:05:38;13.52;;;6.13;;
22298;SDS011;11317;51.072;17.036;2023-03-01T15:08:06;13.45;;;6.07;;
22298;SDS011;11317;51.072;17.036;2023-03-01T15:10:34;14.70;;;6.45;;
22298;SDS011;11317;51.072;17.036;2023-03-01T15:13:19;12.75;;;6.20;;
22298;SDS011;11317;51.072;17.036;2023-03-01T15:15:48;9.98;;;5.45;;
22298;SDS011;11317;51.072;17.036;2023-03-01T15:18:26;15.40;;;6.30;;
22298;SDS011;11317;51.072;17.036;2023-03-01T15:20:54;14.82;;;6.20;;
22298;SDS011;11317;51.072;17.036;2023-03-01T15:23:26;12.73;;;7.00;;
22298;SDS011;11317;51.072;17.036;2023-03-01T15:25:54;13.27;;;6.55;;
22298;SDS011;11317;51.072;17.036;2023-03-01T15:28:22;15.23;;;6.85;;
22298;SDS011;11317;51.072;17.036;2023-03-01T15:30:55;15.05;;;6.70;;
22298;SDS011;11317;51.072;17.036;2023-03-01T15:35:55;12.18;;;6.47;;
22298;SDS011;11317;51.072;17.036;2023-03-01T15:38:26;11.85;;;6.38;;
22298;SDS011;11317;51.072;17.036;2023-03-01T15:40:55;12.07;;;6.10;;
22298;SDS011;11317;51.072;17.036;2023-03-01T15:46:23;14.07;;;6.28;;
22298;SDS011;11317;51.072;17.036;2023-03-01T15:48:57;10.27;;;5.80;;
22298;SDS011;11317;51.072;17.036;2023-03-01T15:51:29;10.88;;;5.70;;
22298;SDS011;11317;51.072;17.036;2023-03-01T15:54:04;15.38;;;6.10;;
22298;SDS011;11317;51.072;17.036;2023-03-01T15:56:41;12.43;;;5.63;;
22298;SDS011;11317;51.072;17.036;2023-03-01T15:59:08;15.00;;;6.82;;
22298;SDS011;11317;51.072;17.036;2023-03-01T16:01:42;12.48;;;6.82;;
22298;SDS011;11317;51.072;17.036;2023-03-01T16:04:12;15.25;;;6.65;;
22298;SDS011;11317;51.072;17.036;2023-03-01T16:06:46;14.00;;;6.82;;
22298;SDS011;11317;51.072;17.036;2023-03-01T16:09:25;11.80;;;6.28;;
22298;SDS011;11317;51.072;17.036;2023-03-01T16:11:52;12.98;;;6.53;;
22298;SDS011;11317;51.072;17.036;2023-03-01T16:14:19;17.10;;;6.30;;
22298;SDS011;11317;51.072;17.036;2023-03-01T16:16:45;11.65;;;5.45;;
22298;SDS011;11317;51.072;17.036;2023-03-01T16:19:13;12.25;;;6.32;;
22298;SDS011;11317;51.072;17.036;2023-03-01T16:21:39;11.88;;;6.30;;
22298;SDS011;11317;51.072;17.036;2023-03-01T16:24:07;18.13;;;6.32;;
22298;SDS011;11317;51.072;17.036;2023-03-01T16:26:33;16.00;;;7.40;;